Milnesand, NM

2:40 PM MDT on August 22, 2014 (GMT -0600)
WT_Meso 2 MI. SW OF DORA, NM | Change Station
CLOSE
Current Station
Personal Weather Station
Location: Dora, NM
Elevation: 4339 ft
Nearby Weather Stations

Elev 4339 ft 33.92 °N, 103.36 °W | Updated 45 minutes ago

Partly Cloudy
Partly Cloudy
87 °F
Feels Like 85 °F
N
15
Wind Variable Wind from SSW
Gusts 21.0 mph

Today
High -- | Low -- °F
--% Chance of Precip.
Yesterday
High -- | Low -- °F
Precip. -- in
6:20 AM 7:31 PM
Waning Crescent, 7% visible
Pressure 29.87 in
Visibility 10.0 miles
Clouds Few 16000 ft
Heat Index 85 °F
Dew Point 53 °F
Humidity 31%
Rainfall -999.00 in
Snow Depth Not available.
UV 10 out of 12
Pollen 8.30 out of 12
Air Quality Not available.
Flu Activity Not available.
METAR KCVS 221958Z AUTO 25010G17KT 10SM FEW160 32/13 A3007 RMK AO2 SLP113 T03190128 $

More Conditions Fewer Conditions

Pressure 29.87 in
Visibility 10.0 miles
Clouds Few 16000 ft
Heat Index 85 °F
Dew Point 53 °F
Humidity 31%
Rainfall -999.00 in
Snow Depth Not available.
UV 10 out of 12
Pollen 8.30 out of 12
Air Quality Not available.
Flu Activity Not available.
METAR KCVS 221958Z AUTO 25010G17KT 10SM FEW160 32/13 A3007 RMK AO2 SLP113 T03190128 $

More Conditions Fewer Conditions

Nowcast | as of 2:06 PM MDT on August 22, 2014

Showers and thunderstorms will continue through the afternoon. In southern Guadalupe County...showers will move across Vaughn... Highway 60...Highway 285...and Highway 54 toward Milagro...pintado... San Ignacio...Pastura...Santa Rosa...and Interstate 40 from mile marker 240 to mile marker 270. Showers in northern Chaves County will move north along Highway 60 toward Mesa...and southern portions of De Baca County. Expect lightning and rainfall up to several tenths of an inch in heavier showers. Elsewhere...expect occasional lightning and rainfall up to a tenth of an inch in scattered showers through the afternoon.

×

10-Day Weather Forecast

Almanac

Astronomy

Aug. 22, 2014 Rise Set
Actual Time 6:20 AM MDT 7:31 PM MDT
Civil Twilight 5:54 AM MDT 7:57 PM MDT
Nautical Twilight 5:23 AM MDT 8:27 PM MDT
Astronomical Twilight 4:51 AM MDT 8:59 PM MDT
Moon 3:48 AM MDT 5:38 PM MDT
Length of Visible Light 14h 02m
Length of Day
13h 10m
Tomorrow will be 1m 55s shorter.
Waning Crescent, 7% of the Moon is Illuminated
Today
Waning Crescent
Aug 25
New
Sep 2
First Quarter
Sep 8
Full
Sep 15
Last Quarter

Today's Extremes

State Highs State Lows

Community

WunderPhotos

Upload Photos

1,746,245 photos uploaded!

Nearby

Snow Depth

Station Depth Elevation
Sierra Blanca 1 in 10280 ft
Wesner Springs 1 in 11120 ft
Santa Fe 1 in 11445 ft
Gallegos Peak 1 in 9800 ft
Tolby 0 in 10180 ft

Earthquake Activity

City Distance Mag. Time & Date
No recent earthquake activity has been reported nearby.
Minimum magnitude displayed is 2.5.

Coastal Water Temperatures

Place Temperature
No Stations Reporting

Nearby Weather Stations